カシュガル の空港の天気 - METARとTAF

カシュガル空港 ( ZWSH / KHG ) - 中国 新疆ウイグル自治区カシュガル市
飛行場実況気象(Metar)
観測時間10/20 12:00 CST (10/20 04:00 UTC)
風向・風速北東 3m/s
視程2500m
天気現象風塵
なし
気温11℃
湿度40%
気圧1024hPa
METARZWSH 200400Z 05003MPS 020V080 2500 DU NSC 11/M02 Q1024 NOSIG
過去の天気等 Google飛行場航空写真 Wunderground天気予報

過去48時間のMETAR

飛行場予報(TAF)
発表時間: 10/20 05:02 CST (10/19 21:02 UTC)
予報対象時間: 20日8時 CST ~ 21日8時 CST
風向・風速東南東 4m/s
視程10km以上
少しの雲 雲底高度 1220m
TAF ZWSH 192102Z 2000/2024 12004MPS 9999 FEW040 TX20/2009Z TN10/2000Z